Terminal Aerodrome Forecast
Issued by NWS Twin Cities, MN

Home | Current Version | Previous Version | Graphics & Text | Print | Product List | Glossary On
Versions: 1 2 3 4 5 6 7 8 9 10 11 12 13 14 15 16 17 18 19 20 21 22 23 24 25 26 27 28 29 30 31 32 33 34 35 36 37
130
FTUS43 KMPX 240545 CCA
TAFMSP
TAF COR
KMSP 240545Z 2406/2512 17005KT P6SM SCT250
     FM240900 16004KT P6SM SCT250
     FM241600 17011G17KT P6SM SCT050 BKN250
     FM250000 16008KT P6SM SCT250
     FM250900 19007KT P6SM VCSH SCT050 BKN100=

USA.gov is the U.S. government's official web portal to all federal, state and local government web resources and services.